sensor_id;sensor_type;location;lat;lon;timestamp;P1;durP1;ratioP1;P2;durP2;ratioP2
75386;SDS011;63966;47.914;22.266;2022-12-08T00:02:04;29.27;;;13.50;;
75386;SDS011;63966;47.914;22.266;2022-12-08T00:05:08;32.33;;;14.23;;
75386;SDS011;63966;47.914;22.266;2022-12-08T00:08:30;31.25;;;14.13;;
75386;SDS011;63966;47.914;22.266;2022-12-08T00:15:01;28.23;;;13.38;;
75386;SDS011;63966;47.914;22.266;2022-12-08T00:18:05;27.65;;;12.95;;
75386;SDS011;63966;47.914;22.266;2022-12-08T00:21:08;28.05;;;12.85;;
75386;SDS011;63966;47.914;22.266;2022-12-08T00:24:11;31.57;;;13.13;;
75386;SDS011;63966;47.914;22.266;2022-12-08T00:27:15;29.65;;;13.75;;
75386;SDS011;63966;47.914;22.266;2022-12-08T00:30:19;31.80;;;14.05;;
75386;SDS011;63966;47.914;22.266;2022-12-08T00:33:22;28.27;;;13.98;;
75386;SDS011;63966;47.914;22.266;2022-12-08T00:36:26;30.27;;;13.00;;
75386;SDS011;63966;47.914;22.266;2022-12-08T00:39:30;29.85;;;12.88;;
75386;SDS011;63966;47.914;22.266;2022-12-08T00:42:33;29.98;;;13.02;;
75386;SDS011;63966;47.914;22.266;2022-12-08T00:45:36;30.08;;;12.73;;
75386;SDS011;63966;47.914;22.266;2022-12-08T00:48:41;25.77;;;12.48;;
75386;SDS011;63966;47.914;22.266;2022-12-08T00:51:44;27.30;;;13.30;;
75386;SDS011;63966;47.914;22.266;2022-12-08T00:54:48;31.35;;;13.38;;
75386;SDS011;63966;47.914;22.266;2022-12-08T00:57:51;32.47;;;13.33;;
75386;SDS011;63966;47.914;22.266;2022-12-08T01:00:55;24.83;;;12.38;;
75386;SDS011;63966;47.914;22.266;2022-12-08T01:04:05;27.20;;;12.80;;
75386;SDS011;63966;47.914;22.266;2022-12-08T01:07:11;31.58;;;13.30;;
75386;SDS011;63966;47.914;22.266;2022-12-08T01:10:15;33.33;;;13.33;;
75386;SDS011;63966;47.914;22.266;2022-12-08T01:13:19;30.55;;;13.32;;
75386;SDS011;63966;47.914;22.266;2022-12-08T01:16:26;27.92;;;13.07;;
75386;SDS011;63966;47.914;22.266;2022-12-08T01:19:31;29.73;;;12.93;;
75386;SDS011;63966;47.914;22.266;2022-12-08T01:22:34;31.03;;;13.50;;
75386;SDS011;63966;47.914;22.266;2022-12-08T01:25:38;29.23;;;13.07;;
75386;SDS011;63966;47.914;22.266;2022-12-08T01:28:41;30.38;;;13.32;;
75386;SDS011;63966;47.914;22.266;2022-12-08T01:31:45;26.15;;;12.50;;
75386;SDS011;63966;47.914;22.266;2022-12-08T01:34:48;28.70;;;13.43;;
75386;SDS011;63966;47.914;22.266;2022-12-08T01:37:52;30.15;;;11.77;;
75386;SDS011;63966;47.914;22.266;2022-12-08T01:40:55;27.92;;;13.23;;
75386;SDS011;63966;47.914;22.266;2022-12-08T01:44:00;27.08;;;13.32;;
75386;SDS011;63966;47.914;22.266;2022-12-08T01:47:11;30.27;;;13.63;;
75386;SDS011;63966;47.914;22.266;2022-12-08T01:50:15;28.70;;;14.23;;
75386;SDS011;63966;47.914;22.266;2022-12-08T01:53:22;29.33;;;13.60;;
75386;SDS011;63966;47.914;22.266;2022-12-08T01:56:35;30.83;;;15.18;;
75386;SDS011;63966;47.914;22.266;2022-12-08T01:59:49;30.67;;;14.32;;
75386;SDS011;63966;47.914;22.266;2022-12-08T02:03:12;29.02;;;13.50;;
75386;SDS011;63966;47.914;22.266;2022-12-08T02:06:28;31.58;;;13.75;;
75386;SDS011;63966;47.914;22.266;2022-12-08T02:09:36;29.02;;;13.05;;
75386;SDS011;63966;47.914;22.266;2022-12-08T02:12:41;27.55;;;12.88;;
75386;SDS011;63966;47.914;22.266;2022-12-08T02:18:58;29.70;;;12.50;;
75386;SDS011;63966;47.914;22.266;2022-12-08T02:39:32;26.88;;;12.85;;
75386;SDS011;63966;47.914;22.266;2022-12-08T02:42:46;28.73;;;12.80;;
75386;SDS011;63966;47.914;22.266;2022-12-08T02:45:51;29.58;;;13.07;;
75386;SDS011;63966;47.914;22.266;2022-12-08T02:49:02;29.60;;;13.38;;
75386;SDS011;63966;47.914;22.266;2022-12-08T02:55:17;32.92;;;12.98;;
75386;SDS011;63966;47.914;22.266;2022-12-08T03:06:10;28.53;;;12.37;;
75386;SDS011;63966;47.914;22.266;2022-12-08T03:09:32;27.42;;;12.18;;
75386;SDS011;63966;47.914;22.266;2022-12-08T03:12:42;27.92;;;13.52;;
75386;SDS011;63966;47.914;22.266;2022-12-08T03:16:05;29.45;;;13.20;;
75386;SDS011;63966;47.914;22.266;2022-12-08T03:22:21;33.47;;;14.77;;
75386;SDS011;63966;47.914;22.266;2022-12-08T03:25:29;31.98;;;14.18;;
75386;SDS011;63966;47.914;22.266;2022-12-08T03:28:38;34.92;;;14.68;;
75386;SDS011;63966;47.914;22.266;2022-12-08T03:31:44;32.03;;;13.47;;
75386;SDS011;63966;47.914;22.266;2022-12-08T03:34:52;29.23;;;13.30;;
75386;SDS011;63966;47.914;22.266;2022-12-08T03:38:04;32.53;;;15.13;;
75386;SDS011;63966;47.914;22.266;2022-12-08T03:41:13;31.63;;;13.10;;
75386;SDS011;63966;47.914;22.266;2022-12-08T03:44:19;34.13;;;14.27;;
75386;SDS011;63966;47.914;22.266;2022-12-08T03:47:23;36.03;;;14.35;;
75386;SDS011;63966;47.914;22.266;2022-12-08T03:50:26;34.58;;;16.02;;
75386;SDS011;63966;47.914;22.266;2022-12-08T03:53:29;33.03;;;15.35;;
75386;SDS011;63966;47.914;22.266;2022-12-08T03:56:34;32.50;;;15.17;;
75386;SDS011;63966;47.914;22.266;2022-12-08T03:59:39;31.55;;;15.10;;
75386;SDS011;63966;47.914;22.266;2022-12-08T04:02:43;33.17;;;13.65;;
75386;SDS011;63966;47.914;22.266;2022-12-08T04:05:46;30.52;;;14.70;;
75386;SDS011;63966;47.914;22.266;2022-12-08T04:08:50;31.07;;;13.57;;
75386;SDS011;63966;47.914;22.266;2022-12-08T04:11:53;29.80;;;12.98;;
75386;SDS011;63966;47.914;22.266;2022-12-08T04:14:57;27.67;;;13.23;;
75386;SDS011;63966;47.914;22.266;2022-12-08T04:18:00;31.52;;;13.93;;
75386;SDS011;63966;47.914;22.266;2022-12-08T04:21:04;31.47;;;15.10;;
75386;SDS011;63966;47.914;22.266;2022-12-08T04:24:07;30.90;;;13.40;;
75386;SDS011;63966;47.914;22.266;2022-12-08T04:27:11;35.78;;;15.35;;
75386;SDS011;63966;47.914;22.266;2022-12-08T04:30:14;36.08;;;14.50;;
75386;SDS011;63966;47.914;22.266;2022-12-08T04:33:18;32.53;;;14.30;;
75386;SDS011;63966;47.914;22.266;2022-12-08T04:36:21;32.88;;;14.95;;
75386;SDS011;63966;47.914;22.266;2022-12-08T04:39:25;39.38;;;16.40;;
75386;SDS011;63966;47.914;22.266;2022-12-08T04:42:28;39.63;;;16.80;;
75386;SDS011;63966;47.914;22.266;2022-12-08T04:45:32;34.00;;;14.80;;
75386;SDS011;63966;47.914;22.266;2022-12-08T04:48:36;37.42;;;15.60;;
75386;SDS011;63966;47.914;22.266;2022-12-08T04:51:40;29.90;;;13.40;;
75386;SDS011;63966;47.914;22.266;2022-12-08T04:54:43;34.00;;;15.30;;
75386;SDS011;63966;47.914;22.266;2022-12-08T04:57:47;32.60;;;14.07;;
75386;SDS011;63966;47.914;22.266;2022-12-08T05:00:50;31.00;;;14.18;;
75386;SDS011;63966;47.914;22.266;2022-12-08T05:03:54;33.03;;;14.25;;
75386;SDS011;63966;47.914;22.266;2022-12-08T05:06:57;31.40;;;14.27;;
75386;SDS011;63966;47.914;22.266;2022-12-08T05:10:01;28.88;;;13.40;;
75386;SDS011;63966;47.914;22.266;2022-12-08T05:13:05;29.60;;;13.18;;
75386;SDS011;63966;47.914;22.266;2022-12-08T05:16:13;29.70;;;12.82;;
75386;SDS011;63966;47.914;22.266;2022-12-08T05:19:17;31.85;;;12.95;;
75386;SDS011;63966;47.914;22.266;2022-12-08T05:22:21;33.65;;;15.88;;
75386;SDS011;63966;47.914;22.266;2022-12-08T05:25:24;39.03;;;17.92;;
75386;SDS011;63966;47.914;22.266;2022-12-08T05:28:28;31.37;;;15.23;;
75386;SDS011;63966;47.914;22.266;2022-12-08T05:31:46;46.03;;;20.88;;
75386;SDS011;63966;47.914;22.266;2022-12-08T05:34:50;52.30;;;22.38;;
75386;SDS011;63966;47.914;22.266;2022-12-08T05:37:53;33.85;;;16.65;;
75386;SDS011;63966;47.914;22.266;2022-12-08T05:40:57;39.53;;;16.50;;
75386;SDS011;63966;47.914;22.266;2022-12-08T05:44:00;34.63;;;15.38;;
75386;SDS011;63966;47.914;22.266;2022-12-08T05:47:04;35.17;;;14.00;;
75386;SDS011;63966;47.914;22.266;2022-12-08T05:50:07;34.13;;;15.03;;
75386;SDS011;63966;47.914;22.266;2022-12-08T05:53:11;34.90;;;15.27;;
75386;SDS011;63966;47.914;22.266;2022-12-08T05:56:14;33.58;;;15.13;;
75386;SDS011;63966;47.914;22.266;2022-12-08T05:59:18;36.70;;;15.47;;
75386;SDS011;63966;47.914;22.266;2022-12-08T06:02:21;33.40;;;15.10;;
75386;SDS011;63966;47.914;22.266;2022-12-08T06:05:25;36.13;;;14.45;;
75386;SDS011;63966;47.914;22.266;2022-12-08T06:08:28;31.33;;;14.13;;
75386;SDS011;63966;47.914;22.266;2022-12-08T06:11:32;31.77;;;13.25;;
75386;SDS011;63966;47.914;22.266;2022-12-08T06:14:38;30.77;;;14.05;;
75386;SDS011;63966;47.914;22.266;2022-12-08T06:17:42;35.92;;;15.57;;
75386;SDS011;63966;47.914;22.266;2022-12-08T06:20:45;34.77;;;13.83;;
75386;SDS011;63966;47.914;22.266;2022-12-08T06:23:49;31.35;;;14.75;;
75386;SDS011;63966;47.914;22.266;2022-12-08T06:26:55;30.40;;;13.43;;
75386;SDS011;63966;47.914;22.266;2022-12-08T06:29:59;32.20;;;14.50;;
75386;SDS011;63966;47.914;22.266;2022-12-08T06:33:05;29.55;;;12.98;;
75386;SDS011;63966;47.914;22.266;2022-12-08T06:36:09;37.70;;;14.57;;
75386;SDS011;63966;47.914;22.266;2022-12-08T06:39:14;32.22;;;14.48;;
75386;SDS011;63966;47.914;22.266;2022-12-08T06:42:18;32.72;;;14.02;;
75386;SDS011;63966;47.914;22.266;2022-12-08T06:45:40;32.00;;;13.63;;
75386;SDS011;63966;47.914;22.266;2022-12-08T06:48:43;29.05;;;13.20;;
75386;SDS011;63966;47.914;22.266;2022-12-08T06:51:48;30.60;;;13.27;;
75386;SDS011;63966;47.914;22.266;2022-12-08T06:54:51;37.60;;;14.90;;
75386;SDS011;63966;47.914;22.266;2022-12-08T06:57:55;35.38;;;14.82;;
75386;SDS011;63966;47.914;22.266;2022-12-08T07:06:06;37.40;;;16.83;;
75386;SDS011;63966;47.914;22.266;2022-12-08T07:09:10;41.13;;;18.05;;
75386;SDS011;63966;47.914;22.266;2022-12-08T07:12:14;46.72;;;19.55;;
75386;SDS011;63966;47.914;22.266;2022-12-08T07:15:18;35.80;;;17.63;;
75386;SDS011;63966;47.914;22.266;2022-12-08T07:18:21;32.45;;;15.80;;
75386;SDS011;63966;47.914;22.266;2022-12-08T07:21:25;33.47;;;15.52;;
75386;SDS011;63966;47.914;22.266;2022-12-08T07:24:28;29.42;;;14.85;;
75386;SDS011;63966;47.914;22.266;2022-12-08T07:27:32;32.15;;;15.13;;
75386;SDS011;63966;47.914;22.266;2022-12-08T07:30:35;29.73;;;14.85;;
75386;SDS011;63966;47.914;22.266;2022-12-08T07:33:40;35.83;;;17.17;;
75386;SDS011;63966;47.914;22.266;2022-12-08T07:36:44;34.40;;;17.13;;
75386;SDS011;63966;47.914;22.266;2022-12-08T07:39:48;37.33;;;17.25;;
75386;SDS011;63966;47.914;22.266;2022-12-08T07:42:51;38.53;;;17.50;;
75386;SDS011;63966;47.914;22.266;2022-12-08T07:45:54;38.90;;;17.27;;
75386;SDS011;63966;47.914;22.266;2022-12-08T07:48:58;35.92;;;16.80;;
75386;SDS011;63966;47.914;22.266;2022-12-08T07:52:01;37.67;;;17.17;;
75386;SDS011;63966;47.914;22.266;2022-12-08T07:55:07;38.08;;;18.05;;
75386;SDS011;63966;47.914;22.266;2022-12-08T07:58:11;38.93;;;17.53;;
75386;SDS011;63966;47.914;22.266;2022-12-08T08:01:24;38.05;;;18.23;;
75386;SDS011;63966;47.914;22.266;2022-12-08T08:04:29;35.13;;;17.45;;
75386;SDS011;63966;47.914;22.266;2022-12-08T08:07:33;37.05;;;18.30;;
75386;SDS011;63966;47.914;22.266;2022-12-08T08:10:38;38.80;;;18.67;;
75386;SDS011;63966;47.914;22.266;2022-12-08T08:13:42;36.50;;;17.67;;
75386;SDS011;63966;47.914;22.266;2022-12-08T08:16:45;38.92;;;17.92;;
75386;SDS011;63966;47.914;22.266;2022-12-08T08:19:49;39.60;;;18.42;;
75386;SDS011;63966;47.914;22.266;2022-12-08T08:22:52;35.85;;;17.05;;
75386;SDS011;63966;47.914;22.266;2022-12-08T08:25:59;37.87;;;17.90;;
75386;SDS011;63966;47.914;22.266;2022-12-08T08:29:05;36.53;;;19.25;;
75386;SDS011;63966;47.914;22.266;2022-12-08T08:32:09;48.75;;;21.80;;
75386;SDS011;63966;47.914;22.266;2022-12-08T08:35:13;42.88;;;21.20;;
75386;SDS011;63966;47.914;22.266;2022-12-08T08:38:16;50.15;;;22.10;;
75386;SDS011;63966;47.914;22.266;2022-12-08T08:41:20;49.30;;;21.17;;
75386;SDS011;63966;47.914;22.266;2022-12-08T08:44:26;39.78;;;18.73;;
75386;SDS011;63966;47.914;22.266;2022-12-08T08:47:29;43.92;;;19.65;;
75386;SDS011;63966;47.914;22.266;2022-12-08T08:50:33;33.78;;;16.88;;
75386;SDS011;63966;47.914;22.266;2022-12-08T08:53:39;36.40;;;18.60;;
75386;SDS011;63966;47.914;22.266;2022-12-08T08:56:43;39.23;;;18.40;;
75386;SDS011;63966;47.914;22.266;2022-12-08T08:59:46;36.55;;;18.15;;
75386;SDS011;63966;47.914;22.266;2022-12-08T09:02:50;38.67;;;18.42;;
75386;SDS011;63966;47.914;22.266;2022-12-08T09:05:54;39.28;;;19.67;;
75386;SDS011;63966;47.914;22.266;2022-12-08T09:08:57;38.92;;;19.55;;
75386;SDS011;63966;47.914;22.266;2022-12-08T09:12:01;34.90;;;19.07;;
75386;SDS011;63966;47.914;22.266;2022-12-08T09:15:05;38.20;;;18.88;;
75386;SDS011;63966;47.914;22.266;2022-12-08T09:18:08;39.90;;;19.20;;
75386;SDS011;63966;47.914;22.266;2022-12-08T09:21:13;37.83;;;18.25;;
75386;SDS011;63966;47.914;22.266;2022-12-08T09:24:21;38.05;;;19.00;;
75386;SDS011;63966;47.914;22.266;2022-12-08T09:27:25;38.67;;;19.27;;
75386;SDS011;63966;47.914;22.266;2022-12-08T09:30:28;39.67;;;20.15;;
75386;SDS011;63966;47.914;22.266;2022-12-08T09:33:32;38.80;;;19.33;;
75386;SDS011;63966;47.914;22.266;2022-12-08T09:36:36;42.20;;;20.40;;
75386;SDS011;63966;47.914;22.266;2022-12-08T09:39:39;42.22;;;21.60;;
75386;SDS011;63966;47.914;22.266;2022-12-08T09:42:46;36.73;;;18.87;;
75386;SDS011;63966;47.914;22.266;2022-12-08T09:45:54;33.70;;;17.33;;
75386;SDS011;63966;47.914;22.266;2022-12-08T09:49:00;37.00;;;17.95;;
75386;SDS011;63966;47.914;22.266;2022-12-08T09:52:05;35.85;;;17.90;;
75386;SDS011;63966;47.914;22.266;2022-12-08T09:55:24;34.55;;;17.52;;
75386;SDS011;63966;47.914;22.266;2022-12-08T09:58:42;30.17;;;16.50;;
75386;SDS011;63966;47.914;22.266;2022-12-08T10:02:12;33.58;;;17.95;;
75386;SDS011;63966;47.914;22.266;2022-12-08T10:05:27;31.52;;;16.88;;
75386;SDS011;63966;47.914;22.266;2022-12-08T10:16:14;31.47;;;16.60;;
75386;SDS011;63966;47.914;22.266;2022-12-08T10:19:40;32.90;;;15.55;;
75386;SDS011;63966;47.914;22.266;2022-12-08T10:22:48;32.70;;;16.00;;
75386;SDS011;63966;47.914;22.266;2022-12-08T10:26:02;32.28;;;15.50;;
75386;SDS011;63966;47.914;22.266;2022-12-08T10:29:13;29.27;;;14.23;;
75386;SDS011;63966;47.914;22.266;2022-12-08T10:32:23;29.50;;;14.50;;
75386;SDS011;63966;47.914;22.266;2022-12-08T10:38:51;23.90;;;12.32;;
75386;SDS011;63966;47.914;22.266;2022-12-08T10:45:29;23.85;;;12.63;;
75386;SDS011;63966;47.914;22.266;2022-12-08T10:48:51;23.97;;;11.83;;
75386;SDS011;63966;47.914;22.266;2022-12-08T10:52:23;22.55;;;10.98;;
75386;SDS011;63966;47.914;22.266;2022-12-08T10:55:27;23.67;;;11.48;;
75386;SDS011;63966;47.914;22.266;2022-12-08T10:58:40;21.67;;;11.05;;
75386;SDS011;63966;47.914;22.266;2022-12-08T11:01:48;23.80;;;12.15;;
75386;SDS011;63966;47.914;22.266;2022-12-08T11:04:55;22.90;;;11.10;;
75386;SDS011;63966;47.914;22.266;2022-12-08T11:08:03;18.08;;;9.30;;
75386;SDS011;63966;47.914;22.266;2022-12-08T11:11:07;22.60;;;11.05;;
75386;SDS011;63966;47.914;22.266;2022-12-08T11:14:15;20.40;;;10.00;;
75386;SDS011;63966;47.914;22.266;2022-12-08T11:17:58;23.15;;;11.38;;
75386;SDS011;63966;47.914;22.266;2022-12-08T11:21:12;23.60;;;12.03;;
75386;SDS011;63966;47.914;22.266;2022-12-08T11:27:27;18.50;;;9.25;;
75386;SDS011;63966;47.914;22.266;2022-12-08T11:30:33;21.30;;;11.20;;
75386;SDS011;63966;47.914;22.266;2022-12-08T11:33:40;19.88;;;9.13;;
75386;SDS011;63966;47.914;22.266;2022-12-08T11:36:45;21.50;;;10.70;;
75386;SDS011;63966;47.914;22.266;2022-12-08T11:39:52;24.10;;;10.98;;
75386;SDS011;63966;47.914;22.266;2022-12-08T11:43:00;20.88;;;10.68;;
75386;SDS011;63966;47.914;22.266;2022-12-08T11:46:34;20.40;;;9.93;;
75386;SDS011;63966;47.914;22.266;2022-12-08T11:49:40;26.25;;;11.30;;
75386;SDS011;63966;47.914;22.266;2022-12-08T11:52:45;26.80;;;10.43;;
75386;SDS011;63966;47.914;22.266;2022-12-08T11:55:54;24.38;;;11.13;;
75386;SDS011;63966;47.914;22.266;2022-12-08T11:59:02;23.15;;;11.25;;
75386;SDS011;63966;47.914;22.266;2022-12-08T12:02:21;22.90;;;10.82;;
75386;SDS011;63966;47.914;22.266;2022-12-08T12:19:13;23.88;;;11.70;;
75386;SDS011;63966;47.914;22.266;2022-12-08T12:22:19;23.27;;;12.10;;
75386;SDS011;63966;47.914;22.266;2022-12-08T12:25:25;26.93;;;13.83;;
75386;SDS011;63966;47.914;22.266;2022-12-08T12:28:43;26.15;;;13.15;;
75386;SDS011;63966;47.914;22.266;2022-12-08T12:31:55;29.02;;;14.45;;
75386;SDS011;63966;47.914;22.266;2022-12-08T12:35:04;23.42;;;12.00;;
75386;SDS011;63966;47.914;22.266;2022-12-08T12:38:41;28.05;;;14.25;;
75386;SDS011;63966;47.914;22.266;2022-12-08T12:42:05;27.20;;;12.97;;
75386;SDS011;63966;47.914;22.266;2022-12-08T12:48:22;24.90;;;13.45;;
75386;SDS011;63966;47.914;22.266;2022-12-08T12:51:45;26.35;;;12.90;;
75386;SDS011;63966;47.914;22.266;2022-12-08T12:58:01;25.10;;;12.77;;
75386;SDS011;63966;47.914;22.266;2022-12-08T13:04:33;25.73;;;12.80;;
75386;SDS011;63966;47.914;22.266;2022-12-08T13:07:49;23.85;;;12.38;;
75386;SDS011;63966;47.914;22.266;2022-12-08T13:14:03;31.37;;;16.07;;
75386;SDS011;63966;47.914;22.266;2022-12-08T13:17:09;32.33;;;16.58;;
75386;SDS011;63966;47.914;22.266;2022-12-08T13:20:18;26.35;;;12.55;;
75386;SDS011;63966;47.914;22.266;2022-12-08T13:26:43;37.03;;;14.85;;
75386;SDS011;63966;47.914;22.266;2022-12-08T13:30:32;31.00;;;14.57;;
75386;SDS011;63966;47.914;22.266;2022-12-08T13:33:55;26.10;;;13.10;;
75386;SDS011;63966;47.914;22.266;2022-12-08T13:40:29;25.77;;;13.25;;
75386;SDS011;63966;47.914;22.266;2022-12-08T13:43:43;25.08;;;12.25;;
75386;SDS011;63966;47.914;22.266;2022-12-08T13:47:18;30.37;;;13.37;;
75386;SDS011;63966;47.914;22.266;2022-12-08T13:50:45;29.40;;;13.50;;
75386;SDS011;63966;47.914;22.266;2022-12-08T13:54:30;29.00;;;13.38;;
75386;SDS011;63966;47.914;22.266;2022-12-08T13:57:57;26.17;;;12.15;;
75386;SDS011;63966;47.914;22.266;2022-12-08T14:01:13;25.40;;;12.15;;
75386;SDS011;63966;47.914;22.266;2022-12-08T14:04:24;23.90;;;10.90;;
75386;SDS011;63966;47.914;22.266;2022-12-08T14:07:51;23.60;;;11.60;;
75386;SDS011;63966;47.914;22.266;2022-12-08T14:10:58;27.67;;;13.77;;
75386;SDS011;63966;47.914;22.266;2022-12-08T14:17:12;25.08;;;12.75;;
75386;SDS011;63966;47.914;22.266;2022-12-08T14:23:23;26.27;;;13.23;;
75386;SDS011;63966;47.914;22.266;2022-12-08T14:26:30;29.05;;;14.35;;
75386;SDS011;63966;47.914;22.266;2022-12-08T14:29:46;30.02;;;13.68;;
75386;SDS011;63966;47.914;22.266;2022-12-08T14:32:54;39.42;;;16.73;;
75386;SDS011;63966;47.914;22.266;2022-12-08T14:36:02;41.53;;;15.67;;
75386;SDS011;63966;47.914;22.266;2022-12-08T14:39:06;30.05;;;13.95;;
75386;SDS011;63966;47.914;22.266;2022-12-08T14:42:11;30.65;;;13.23;;
75386;SDS011;63966;47.914;22.266;2022-12-08T14:45:25;22.83;;;11.30;;
75386;SDS011;63966;47.914;22.266;2022-12-08T14:51:35;28.97;;;13.73;;
75386;SDS011;63966;47.914;22.266;2022-12-08T14:54:41;28.85;;;13.80;;
75386;SDS011;63966;47.914;22.266;2022-12-08T14:57:46;27.40;;;13.85;;
75386;SDS011;63966;47.914;22.266;2022-12-08T15:00:53;25.95;;;13.30;;
75386;SDS011;63966;47.914;22.266;2022-12-08T15:04:00;31.73;;;13.30;;
75386;SDS011;63966;47.914;22.266;2022-12-08T15:10:28;35.42;;;14.35;;
75386;SDS011;63966;47.914;22.266;2022-12-08T15:13:34;27.52;;;13.75;;
75386;SDS011;63966;47.914;22.266;2022-12-08T15:16:44;29.08;;;12.98;;
75386;SDS011;63966;47.914;22.266;2022-12-08T15:19:54;40.08;;;17.63;;
75386;SDS011;63966;47.914;22.266;2022-12-08T15:22:58;28.07;;;12.90;;
75386;SDS011;63966;47.914;22.266;2022-12-08T15:26:02;24.70;;;11.77;;
75386;SDS011;63966;47.914;22.266;2022-12-08T15:29:15;20.50;;;10.35;;
75386;SDS011;63966;47.914;22.266;2022-12-08T15:32:31;20.90;;;10.02;;
75386;SDS011;63966;47.914;22.266;2022-12-08T15:35:34;24.27;;;11.20;;
75386;SDS011;63966;47.914;22.266;2022-12-08T15:38:42;23.83;;;11.23;;
75386;SDS011;63966;47.914;22.266;2022-12-08T15:41:45;24.17;;;10.82;;
75386;SDS011;63966;47.914;22.266;2022-12-08T15:44:49;19.58;;;8.90;;
75386;SDS011;63966;47.914;22.266;2022-12-08T15:47:52;30.02;;;13.00;;
75386;SDS011;63966;47.914;22.266;2022-12-08T15:50:56;33.92;;;15.13;;
75386;SDS011;63966;47.914;22.266;2022-12-08T15:53:59;28.40;;;11.83;;
75386;SDS011;63966;47.914;22.266;2022-12-08T15:57:03;24.15;;;10.05;;
75386;SDS011;63966;47.914;22.266;2022-12-08T16:00:30;23.67;;;10.70;;
75386;SDS011;63966;47.914;22.266;2022-12-08T16:03:54;39.05;;;15.95;;
75386;SDS011;63966;47.914;22.266;2022-12-08T16:07:20;30.08;;;15.65;;
75386;SDS011;63966;47.914;22.266;2022-12-08T16:10:28;23.13;;;10.93;;
75386;SDS011;63966;47.914;22.266;2022-12-08T16:13:51;24.35;;;11.32;;
75386;SDS011;63966;47.914;22.266;2022-12-08T16:17:15;22.50;;;11.30;;
75386;SDS011;63966;47.914;22.266;2022-12-08T16:20:19;20.50;;;10.90;;
75386;SDS011;63966;47.914;22.266;2022-12-08T16:23:43;25.33;;;13.00;;
75386;SDS011;63966;47.914;22.266;2022-12-08T16:26:47;15.93;;;7.70;;
75386;SDS011;63966;47.914;22.266;2022-12-08T16:30:12;24.27;;;11.95;;
75386;SDS011;63966;47.914;22.266;2022-12-08T16:33:18;25.23;;;11.82;;
75386;SDS011;63966;47.914;22.266;2022-12-08T16:36:23;21.67;;;10.63;;
75386;SDS011;63966;47.914;22.266;2022-12-08T16:39:27;21.33;;;11.13;;
75386;SDS011;63966;47.914;22.266;2022-12-08T16:42:31;20.65;;;9.65;;
75386;SDS011;63966;47.914;22.266;2022-12-08T16:45:41;18.83;;;8.95;;
75386;SDS011;63966;47.914;22.266;2022-12-08T16:48:46;22.98;;;11.63;;
75386;SDS011;63966;47.914;22.266;2022-12-08T16:51:50;24.70;;;11.88;;
75386;SDS011;63966;47.914;22.266;2022-12-08T16:54:53;15.90;;;8.03;;
75386;SDS011;63966;47.914;22.266;2022-12-08T16:57:57;21.48;;;11.02;;
75386;SDS011;63966;47.914;22.266;2022-12-08T17:01:00;21.00;;;10.38;;
75386;SDS011;63966;47.914;22.266;2022-12-08T17:04:04;20.52;;;10.45;;
75386;SDS011;63966;47.914;22.266;2022-12-08T17:07:27;27.25;;;13.95;;
75386;SDS011;63966;47.914;22.266;2022-12-08T17:10:31;23.03;;;12.77;;
75386;SDS011;63966;47.914;22.266;2022-12-08T17:13:40;29.23;;;13.27;;
75386;SDS011;63966;47.914;22.266;2022-12-08T17:16:43;28.00;;;13.43;;
75386;SDS011;63966;47.914;22.266;2022-12-08T17:19:47;28.77;;;13.85;;
75386;SDS011;63966;47.914;22.266;2022-12-08T17:22:54;21.40;;;10.68;;
75386;SDS011;63966;47.914;22.266;2022-12-08T17:25:59;31.00;;;13.23;;
75386;SDS011;63966;47.914;22.266;2022-12-08T17:29:03;33.10;;;13.80;;
75386;SDS011;63966;47.914;22.266;2022-12-08T17:32:07;26.70;;;13.23;;
75386;SDS011;63966;47.914;22.266;2022-12-08T17:35:11;21.58;;;10.52;;
75386;SDS011;63966;47.914;22.266;2022-12-08T17:38:16;27.70;;;12.45;;
75386;SDS011;63966;47.914;22.266;2022-12-08T17:41:20;22.47;;;12.27;;
75386;SDS011;63966;47.914;22.266;2022-12-08T17:44:23;25.58;;;11.55;;
75386;SDS011;63966;47.914;22.266;2022-12-08T17:47:27;26.73;;;13.30;;
75386;SDS011;63966;47.914;22.266;2022-12-08T17:50:30;23.17;;;11.25;;
75386;SDS011;63966;47.914;22.266;2022-12-08T17:53:34;19.63;;;10.02;;
75386;SDS011;63966;47.914;22.266;2022-12-08T17:56:38;21.23;;;10.77;;
75386;SDS011;63966;47.914;22.266;2022-12-08T17:59:42;21.48;;;10.57;;
75386;SDS011;63966;47.914;22.266;2022-12-08T18:02:45;21.42;;;11.18;;
75386;SDS011;63966;47.914;22.266;2022-12-08T18:05:49;25.90;;;12.00;;
75386;SDS011;63966;47.914;22.266;2022-12-08T18:08:53;21.20;;;10.73;;
75386;SDS011;63966;47.914;22.266;2022-12-08T18:11:57;24.77;;;11.67;;
75386;SDS011;63966;47.914;22.266;2022-12-08T18:15:02;23.52;;;11.05;;
75386;SDS011;63966;47.914;22.266;2022-12-08T18:18:07;23.77;;;12.43;;
75386;SDS011;63966;47.914;22.266;2022-12-08T18:21:10;24.27;;;11.20;;
75386;SDS011;63966;47.914;22.266;2022-12-08T18:24:18;27.77;;;12.18;;
75386;SDS011;63966;47.914;22.266;2022-12-08T18:27:24;25.80;;;13.10;;
75386;SDS011;63966;47.914;22.266;2022-12-08T18:30:28;29.00;;;14.60;;
75386;SDS011;63966;47.914;22.266;2022-12-08T18:33:32;30.60;;;14.30;;
75386;SDS011;63966;47.914;22.266;2022-12-08T18:36:35;28.27;;;13.32;;
75386;SDS011;63966;47.914;22.266;2022-12-08T18:39:39;27.60;;;13.73;;
75386;SDS011;63966;47.914;22.266;2022-12-08T18:42:43;35.83;;;15.83;;
75386;SDS011;63966;47.914;22.266;2022-12-08T18:45:46;30.33;;;14.27;;
75386;SDS011;63966;47.914;22.266;2022-12-08T18:48:50;28.23;;;14.30;;
75386;SDS011;63966;47.914;22.266;2022-12-08T18:51:54;29.15;;;14.13;;
75386;SDS011;63966;47.914;22.266;2022-12-08T18:54:58;28.35;;;14.05;;
75386;SDS011;63966;47.914;22.266;2022-12-08T18:58:13;24.03;;;12.33;;
75386;SDS011;63966;47.914;22.266;2022-12-08T19:01:17;25.67;;;12.73;;
75386;SDS011;63966;47.914;22.266;2022-12-08T19:04:21;37.30;;;17.42;;
75386;SDS011;63966;47.914;22.266;2022-12-08T19:07:39;49.00;;;20.20;;
75386;SDS011;63966;47.914;22.266;2022-12-08T19:10:44;29.77;;;15.13;;
75386;SDS011;63966;47.914;22.266;2022-12-08T19:13:47;35.97;;;15.17;;
75386;SDS011;63966;47.914;22.266;2022-12-08T19:16:51;32.10;;;14.13;;
75386;SDS011;63966;47.914;22.266;2022-12-08T19:19:55;26.67;;;13.23;;
75386;SDS011;63966;47.914;22.266;2022-12-08T19:22:59;31.65;;;14.60;;
75386;SDS011;63966;47.914;22.266;2022-12-08T19:26:03;26.48;;;12.80;;
75386;SDS011;63966;47.914;22.266;2022-12-08T19:29:07;23.03;;;11.73;;
75386;SDS011;63966;47.914;22.266;2022-12-08T19:32:12;21.42;;;10.93;;
75386;SDS011;63966;47.914;22.266;2022-12-08T19:35:16;21.63;;;10.63;;
75386;SDS011;63966;47.914;22.266;2022-12-08T19:38:19;18.90;;;9.18;;
75386;SDS011;63966;47.914;22.266;2022-12-08T19:41:23;21.50;;;11.20;;
75386;SDS011;63966;47.914;22.266;2022-12-08T19:44:45;22.60;;;10.02;;
75386;SDS011;63966;47.914;22.266;2022-12-08T19:47:54;22.23;;;11.40;;